Estación Meteorológica Peña el Pijo (Robertgarden) [ 02/03/23 04:33:35 CET ]

Fecha Hora Presion(HPa) Temp (°C) Humedad % Rocio (°C) Viento ( m/s) Direccion Lluvia 1Hora(mm) Lluvia 24H(mm) LLuvia Total(mm)
2012-Mar-09 01:01:16 1016.600 -1.0 61 -7.6         153.32
2012-Mar-09 02:06:14 1016.500 -1.9 65 -7.6         153.32
2012-Mar-09 03:01:14 1016.500 -2.6 67 -7.9         153.32
2012-Mar-09 04:01:13 1016.200 -3.1 71 -7.6         153.32
2012-Mar-09 05:01:14 1016.300 -3.1 73 -7.3         153.32
2012-Mar-09 06:01:12 1016.400 -3.3 74 -7.3         153.32
2012-Mar-09 07:01:17 1016.600 -3.6 77 -7.1         153.32
2012-Mar-09 08:01:18 1017.000 -3.7 77 -7.2         153.32
2012-Mar-09 09:01:17 1017.200 1.9 71 -2.8         153.32
2012-Mar-09 10:01:14 1017.200 7.2 55 -1.3         153.32
2012-Mar-09 11:01:16 1017.600 11.4 39 -2.1 0.7 NNE     153.32
2012-Mar-09 12:01:16 1017.500 12.4 33 -3.5         153.32
2012-Mar-09 13:01:17 1017.400 15.0 30 -2.4         153.32
2012-Mar-09 14:01:13 1016.900 16.5 23 -4.9         153.32
2012-Mar-09 15:01:13 1016.500 16.1 22 -5.8         153.32
2012-Mar-09 16:01:13 1016.500 16.8 20 -6.3 2.2 NNE     153.32
2012-Mar-09 17:01:14 1016.500 16.4 22 -5.5         153.32
2012-Mar-09 18:01:14 1016.900 14.2 24 -6.3         153.32
2012-Mar-09 19:01:19 1017.400 11.1 27 -7.4         153.32
2012-Mar-09 20:01:17 1018.000 7.6 33 -7.8         153.32
2012-Mar-09 21:01:15 1018.500 5.0 49 -4.9         153.32
2012-Mar-09 22:01:12 1019.000 4.8 66 -1.0         153.32
2012-Mar-09 23:01:14 1020.000 3.8 73 -0.6         153.32

Temperatura Máxima:16°    Temperatura Mínima:-3°
Presión Máxima:1020.000 Hpa    Presión Mínima:1016.200 Hpa


Volver